Terminal Aerodrome Forecast
Issued by NWS

Home | Current Version | Previous Version | Text Only | Print | Product List | Glossary On
Versions: 1 2 3 4 5 6 7 8 9 10 11 12 13 14 15 16
440
FTUS43 KGRB 121128
TAFAUW
TAF
KAUW 121128Z 1212/1312 30011G17KT P6SM BKN035
      TEMPO 1212/1216 -SN BKN025
     FM121600 32015G24KT P6SM -SN BKN035
     FM122300 31010KT P6SM SCT035=

USA.gov is the U.S. government's official web portal to all federal, state and local government web resources and services.